sensor_id;sensor_type;location;lat;lon;timestamp;P1;durP1;ratioP1;P2;durP2;ratioP2
5785;SDS011;2919;48.630;9.000;2023-08-06T00:02:13;2.10;;;1.20;;
5785;SDS011;2919;48.630;9.000;2023-08-06T00:04:39;2.03;;;1.17;;
5785;SDS011;2919;48.630;9.000;2023-08-06T00:07:04;2.47;;;1.23;;
5785;SDS011;2919;48.630;9.000;2023-08-06T00:09:30;2.60;;;1.20;;
5785;SDS011;2919;48.630;9.000;2023-08-06T00:11:55;3.90;;;1.40;;
5785;SDS011;2919;48.630;9.000;2023-08-06T00:14:21;7.20;;;1.40;;
5785;SDS011;2919;48.630;9.000;2023-08-06T00:16:47;2.40;;;1.17;;
5785;SDS011;2919;48.630;9.000;2023-08-06T00:19:12;1.90;;;1.20;;
5785;SDS011;2919;48.630;9.000;2023-08-06T00:21:38;3.30;;;1.10;;
5785;SDS011;2919;48.630;9.000;2023-08-06T00:24:04;2.90;;;1.70;;
5785;SDS011;2919;48.630;9.000;2023-08-06T00:26:29;3.07;;;1.30;;
5785;SDS011;2919;48.630;9.000;2023-08-06T00:28:55;2.87;;;1.50;;
5785;SDS011;2919;48.630;9.000;2023-08-06T00:31:21;3.10;;;1.40;;
5785;SDS011;2919;48.630;9.000;2023-08-06T00:33:46;2.00;;;1.10;;
5785;SDS011;2919;48.630;9.000;2023-08-06T00:36:12;2.47;;;1.50;;
5785;SDS011;2919;48.630;9.000;2023-08-06T00:38:37;2.90;;;1.73;;
5785;SDS011;2919;48.630;9.000;2023-08-06T00:41:03;2.80;;;1.77;;
5785;SDS011;2919;48.630;9.000;2023-08-06T00:43:28;3.33;;;1.50;;
5785;SDS011;2919;48.630;9.000;2023-08-06T00:45:54;2.60;;;1.30;;
5785;SDS011;2919;48.630;9.000;2023-08-06T00:48:20;3.00;;;1.47;;
5785;SDS011;2919;48.630;9.000;2023-08-06T00:50:46;5.07;;;2.30;;
5785;SDS011;2919;48.630;9.000;2023-08-06T00:53:12;4.50;;;1.60;;
5785;SDS011;2919;48.630;9.000;2023-08-06T00:55:38;3.53;;;1.47;;
5785;SDS011;2919;48.630;9.000;2023-08-06T00:58:04;1.97;;;1.27;;
5785;SDS011;2919;48.630;9.000;2023-08-06T01:00:30;2.83;;;1.47;;
5785;SDS011;2919;48.630;9.000;2023-08-06T01:02:56;1.90;;;1.10;;
5785;SDS011;2919;48.630;9.000;2023-08-06T01:05:22;3.10;;;1.50;;
5785;SDS011;2919;48.630;9.000;2023-08-06T01:08:09;3.30;;;2.00;;
5785;SDS011;2919;48.630;9.000;2023-08-06T01:16:02;2.43;;;1.60;;
5785;SDS011;2919;48.630;9.000;2023-08-06T01:18:30;2.83;;;1.50;;
5785;SDS011;2919;48.630;9.000;2023-08-06T01:20:56;2.43;;;1.50;;
5785;SDS011;2919;48.630;9.000;2023-08-06T01:23:22;3.50;;;1.70;;
5785;SDS011;2919;48.630;9.000;2023-08-06T01:28:27;3.80;;;1.30;;
5785;SDS011;2919;48.630;9.000;2023-08-06T01:31:10;2.63;;;1.63;;
5785;SDS011;2919;48.630;9.000;2023-08-06T01:33:47;2.60;;;1.20;;
5785;SDS011;2919;48.630;9.000;2023-08-06T01:36:15;4.63;;;1.50;;
5785;SDS011;2919;48.630;9.000;2023-08-06T01:38:43;4.77;;;1.03;;
5785;SDS011;2919;48.630;9.000;2023-08-06T01:41:08;3.60;;;1.67;;
5785;SDS011;2919;48.630;9.000;2023-08-06T01:43:34;2.87;;;1.50;;
5785;SDS011;2919;48.630;9.000;2023-08-06T01:46:00;3.60;;;1.47;;
5785;SDS011;2919;48.630;9.000;2023-08-06T01:48:25;2.70;;;1.43;;
5785;SDS011;2919;48.630;9.000;2023-08-06T01:50:51;2.00;;;1.00;;
5785;SDS011;2919;48.630;9.000;2023-08-06T01:53:16;10.80;;;1.37;;
5785;SDS011;2919;48.630;9.000;2023-08-06T01:55:42;5.50;;;1.37;;
5785;SDS011;2919;48.630;9.000;2023-08-06T01:58:12;4.80;;;1.30;;
5785;SDS011;2919;48.630;9.000;2023-08-06T02:00:37;4.30;;;1.67;;
5785;SDS011;2919;48.630;9.000;2023-08-06T02:03:03;2.67;;;1.47;;
5785;SDS011;2919;48.630;9.000;2023-08-06T02:05:29;3.93;;;1.60;;
5785;SDS011;2919;48.630;9.000;2023-08-06T02:07:54;2.40;;;1.40;;
5785;SDS011;2919;48.630;9.000;2023-08-06T02:10:20;2.13;;;0.97;;
5785;SDS011;2919;48.630;9.000;2023-08-06T02:12:45;3.30;;;1.47;;
5785;SDS011;2919;48.630;9.000;2023-08-06T02:15:11;1.77;;;1.00;;
5785;SDS011;2919;48.630;9.000;2023-08-06T02:17:36;8.17;;;1.90;;
5785;SDS011;2919;48.630;9.000;2023-08-06T02:20:02;1.93;;;1.20;;
5785;SDS011;2919;48.630;9.000;2023-08-06T02:22:28;4.27;;;1.40;;
5785;SDS011;2919;48.630;9.000;2023-08-06T02:24:53;1.90;;;1.07;;
5785;SDS011;2919;48.630;9.000;2023-08-06T02:27:19;2.53;;;1.37;;
5785;SDS011;2919;48.630;9.000;2023-08-06T02:29:45;7.63;;;1.33;;
5785;SDS011;2919;48.630;9.000;2023-08-06T02:32:10;3.00;;;1.27;;
5785;SDS011;2919;48.630;9.000;2023-08-06T02:34:36;2.03;;;0.90;;
5785;SDS011;2919;48.630;9.000;2023-08-06T02:37:01;3.00;;;1.40;;
5785;SDS011;2919;48.630;9.000;2023-08-06T02:39:27;1.90;;;1.00;;
5785;SDS011;2919;48.630;9.000;2023-08-06T02:41:53;3.30;;;1.20;;
5785;SDS011;2919;48.630;9.000;2023-08-06T02:44:18;2.53;;;1.23;;
5785;SDS011;2919;48.630;9.000;2023-08-06T02:46:44;5.23;;;1.10;;
5785;SDS011;2919;48.630;9.000;2023-08-06T02:49:10;3.63;;;1.33;;
5785;SDS011;2919;48.630;9.000;2023-08-06T02:51:36;2.00;;;1.10;;
5785;SDS011;2919;48.630;9.000;2023-08-06T02:54:01;2.50;;;1.10;;
5785;SDS011;2919;48.630;9.000;2023-08-06T02:56:27;3.50;;;1.73;;
5785;SDS011;2919;48.630;9.000;2023-08-06T02:58:52;3.53;;;1.77;;
5785;SDS011;2919;48.630;9.000;2023-08-06T03:01:18;2.73;;;1.00;;
5785;SDS011;2919;48.630;9.000;2023-08-06T03:03:43;8.40;;;1.47;;
5785;SDS011;2919;48.630;9.000;2023-08-06T03:06:09;3.10;;;1.37;;
5785;SDS011;2919;48.630;9.000;2023-08-06T03:08:35;2.03;;;1.00;;
5785;SDS011;2919;48.630;9.000;2023-08-06T03:11:00;5.07;;;1.53;;
5785;SDS011;2919;48.630;9.000;2023-08-06T03:13:26;2.93;;;1.50;;
5785;SDS011;2919;48.630;9.000;2023-08-06T03:15:56;2.50;;;1.10;;
5785;SDS011;2919;48.630;9.000;2023-08-06T03:18:23;3.07;;;1.30;;
5785;SDS011;2919;48.630;9.000;2023-08-06T03:20:49;6.70;;;1.10;;
5785;SDS011;2919;48.630;9.000;2023-08-06T03:23:15;3.40;;;1.60;;
5785;SDS011;2919;48.630;9.000;2023-08-06T03:25:40;2.80;;;1.20;;
5785;SDS011;2919;48.630;9.000;2023-08-06T03:28:06;3.53;;;1.10;;
5785;SDS011;2919;48.630;9.000;2023-08-06T03:30:31;3.60;;;1.33;;
5785;SDS011;2919;48.630;9.000;2023-08-06T03:32:57;5.63;;;1.47;;
5785;SDS011;2919;48.630;9.000;2023-08-06T03:35:23;2.63;;;1.13;;
5785;SDS011;2919;48.630;9.000;2023-08-06T03:37:48;2.33;;;1.37;;
5785;SDS011;2919;48.630;9.000;2023-08-06T03:40:14;3.60;;;1.10;;
5785;SDS011;2919;48.630;9.000;2023-08-06T03:42:40;3.50;;;1.70;;
5785;SDS011;2919;48.630;9.000;2023-08-06T03:45:06;4.43;;;1.50;;
5785;SDS011;2919;48.630;9.000;2023-08-06T03:47:32;2.10;;;1.20;;
5785;SDS011;2919;48.630;9.000;2023-08-06T03:49:58;3.30;;;1.20;;
5785;SDS011;2919;48.630;9.000;2023-08-06T03:52:23;2.87;;;1.10;;
5785;SDS011;2919;48.630;9.000;2023-08-06T03:54:49;1.97;;;1.20;;
5785;SDS011;2919;48.630;9.000;2023-08-06T03:57:15;5.33;;;1.23;;
5785;SDS011;2919;48.630;9.000;2023-08-06T03:59:40;1.80;;;1.20;;
5785;SDS011;2919;48.630;9.000;2023-08-06T04:02:06;1.87;;;1.10;;
5785;SDS011;2919;48.630;9.000;2023-08-06T04:04:32;1.77;;;1.00;;
5785;SDS011;2919;48.630;9.000;2023-08-06T04:06:57;3.77;;;1.40;;
5785;SDS011;2919;48.630;9.000;2023-08-06T04:09:23;2.57;;;1.27;;
5785;SDS011;2919;48.630;9.000;2023-08-06T04:11:49;1.60;;;0.80;;
5785;SDS011;2919;48.630;9.000;2023-08-06T04:14:14;2.50;;;1.50;;
5785;SDS011;2919;48.630;9.000;2023-08-06T04:16:40;1.67;;;0.73;;
5785;SDS011;2919;48.630;9.000;2023-08-06T04:19:05;2.37;;;1.50;;
5785;SDS011;2919;48.630;9.000;2023-08-06T04:21:31;13.47;;;1.27;;
5785;SDS011;2919;48.630;9.000;2023-08-06T04:23:56;3.20;;;1.17;;
5785;SDS011;2919;48.630;9.000;2023-08-06T04:26:22;2.07;;;1.17;;
5785;SDS011;2919;48.630;9.000;2023-08-06T04:28:48;1.90;;;0.90;;
5785;SDS011;2919;48.630;9.000;2023-08-06T04:31:14;2.77;;;1.30;;
5785;SDS011;2919;48.630;9.000;2023-08-06T04:33:39;1.83;;;0.70;;
5785;SDS011;2919;48.630;9.000;2023-08-06T04:36:06;5.00;;;0.80;;
5785;SDS011;2919;48.630;9.000;2023-08-06T04:38:32;2.57;;;0.90;;
5785;SDS011;2919;48.630;9.000;2023-08-06T04:40:57;5.93;;;1.20;;
5785;SDS011;2919;48.630;9.000;2023-08-06T04:43:23;3.30;;;1.50;;
5785;SDS011;2919;48.630;9.000;2023-08-06T04:45:49;2.90;;;1.10;;
5785;SDS011;2919;48.630;9.000;2023-08-06T04:48:16;1.60;;;0.80;;
5785;SDS011;2919;48.630;9.000;2023-08-06T04:50:45;3.33;;;1.00;;
5785;SDS011;2919;48.630;9.000;2023-08-06T04:53:11;2.30;;;1.00;;
5785;SDS011;2919;48.630;9.000;2023-08-06T04:55:37;4.23;;;1.37;;
5785;SDS011;2919;48.630;9.000;2023-08-06T04:58:03;8.63;;;1.50;;
5785;SDS011;2919;48.630;9.000;2023-08-06T05:00:29;1.67;;;1.03;;
5785;SDS011;2919;48.630;9.000;2023-08-06T05:02:55;2.20;;;1.03;;
5785;SDS011;2919;48.630;9.000;2023-08-06T05:05:21;2.70;;;1.27;;
5785;SDS011;2919;48.630;9.000;2023-08-06T05:07:48;1.40;;;0.70;;
5785;SDS011;2919;48.630;9.000;2023-08-06T05:10:15;1.83;;;0.73;;
5785;SDS011;2919;48.630;9.000;2023-08-06T05:12:41;1.70;;;0.93;;
5785;SDS011;2919;48.630;9.000;2023-08-06T05:15:06;2.17;;;0.90;;
5785;SDS011;2919;48.630;9.000;2023-08-06T05:17:33;2.67;;;1.00;;
5785;SDS011;2919;48.630;9.000;2023-08-06T05:19:59;1.70;;;0.70;;
5785;SDS011;2919;48.630;9.000;2023-08-06T05:22:24;2.60;;;0.80;;
5785;SDS011;2919;48.630;9.000;2023-08-06T05:24:50;2.30;;;0.90;;
5785;SDS011;2919;48.630;9.000;2023-08-06T05:27:16;5.43;;;1.07;;
5785;SDS011;2919;48.630;9.000;2023-08-06T05:29:44;2.07;;;0.90;;
5785;SDS011;2919;48.630;9.000;2023-08-06T05:32:10;2.00;;;0.70;;
5785;SDS011;2919;48.630;9.000;2023-08-06T05:34:35;2.80;;;1.07;;
5785;SDS011;2919;48.630;9.000;2023-08-06T05:37:01;2.80;;;0.67;;
5785;SDS011;2919;48.630;9.000;2023-08-06T05:39:27;1.93;;;0.80;;
5785;SDS011;2919;48.630;9.000;2023-08-06T05:41:53;3.20;;;0.73;;
5785;SDS011;2919;48.630;9.000;2023-08-06T05:44:21;2.03;;;0.63;;
5785;SDS011;2919;48.630;9.000;2023-08-06T05:46:48;2.47;;;0.70;;
5785;SDS011;2919;48.630;9.000;2023-08-06T05:49:14;1.50;;;0.80;;
5785;SDS011;2919;48.630;9.000;2023-08-06T05:51:40;2.60;;;0.63;;
5785;SDS011;2919;48.630;9.000;2023-08-06T05:54:06;2.80;;;0.90;;
5785;SDS011;2919;48.630;9.000;2023-08-06T05:56:32;1.40;;;0.50;;
5785;SDS011;2919;48.630;9.000;2023-08-06T05:58:58;4.50;;;0.80;;
5785;SDS011;2919;48.630;9.000;2023-08-06T06:01:23;1.43;;;0.60;;
5785;SDS011;2919;48.630;9.000;2023-08-06T06:03:49;2.13;;;1.00;;
5785;SDS011;2919;48.630;9.000;2023-08-06T06:06:14;4.73;;;0.87;;
5785;SDS011;2919;48.630;9.000;2023-08-06T06:08:41;2.23;;;1.10;;
5785;SDS011;2919;48.630;9.000;2023-08-06T06:11:07;1.97;;;0.60;;
5785;SDS011;2919;48.630;9.000;2023-08-06T06:13:32;1.70;;;0.80;;
5785;SDS011;2919;48.630;9.000;2023-08-06T06:15:58;1.30;;;0.60;;
5785;SDS011;2919;48.630;9.000;2023-08-06T06:18:23;1.90;;;0.90;;
5785;SDS011;2919;48.630;9.000;2023-08-06T06:20:49;1.43;;;0.77;;
5785;SDS011;2919;48.630;9.000;2023-08-06T06:23:15;1.37;;;0.73;;
5785;SDS011;2919;48.630;9.000;2023-08-06T06:25:46;6.40;;;0.70;;
5785;SDS011;2919;48.630;9.000;2023-08-06T06:28:13;2.27;;;1.00;;
5785;SDS011;2919;48.630;9.000;2023-08-06T06:30:39;1.50;;;0.67;;
5785;SDS011;2919;48.630;9.000;2023-08-06T06:33:05;3.10;;;0.87;;
5785;SDS011;2919;48.630;9.000;2023-08-06T06:35:31;3.73;;;0.77;;
5785;SDS011;2919;48.630;9.000;2023-08-06T06:37:57;1.43;;;0.70;;
5785;SDS011;2919;48.630;9.000;2023-08-06T06:40:22;1.90;;;0.77;;
5785;SDS011;2919;48.630;9.000;2023-08-06T06:42:48;1.90;;;0.73;;
5785;SDS011;2919;48.630;9.000;2023-08-06T06:45:13;1.83;;;1.00;;
5785;SDS011;2919;48.630;9.000;2023-08-06T06:47:39;1.50;;;0.80;;
5785;SDS011;2919;48.630;9.000;2023-08-06T06:50:05;3.83;;;0.80;;
5785;SDS011;2919;48.630;9.000;2023-08-06T06:52:31;3.00;;;1.03;;
5785;SDS011;2919;48.630;9.000;2023-08-06T06:54:56;1.20;;;0.50;;
5785;SDS011;2919;48.630;9.000;2023-08-06T06:57:22;1.20;;;0.60;;
5785;SDS011;2919;48.630;9.000;2023-08-06T06:59:48;3.33;;;0.60;;
5785;SDS011;2919;48.630;9.000;2023-08-06T07:02:13;1.63;;;0.57;;
5785;SDS011;2919;48.630;9.000;2023-08-06T07:04:39;1.93;;;0.60;;
5785;SDS011;2919;48.630;9.000;2023-08-06T07:07:04;1.13;;;0.50;;
5785;SDS011;2919;48.630;9.000;2023-08-06T07:09:30;1.40;;;0.60;;
5785;SDS011;2919;48.630;9.000;2023-08-06T07:11:55;1.30;;;0.50;;
5785;SDS011;2919;48.630;9.000;2023-08-06T07:14:22;1.10;;;0.50;;
5785;SDS011;2919;48.630;9.000;2023-08-06T07:16:50;3.57;;;0.60;;
5785;SDS011;2919;48.630;9.000;2023-08-06T07:19:16;1.20;;;0.60;;
5785;SDS011;2919;48.630;9.000;2023-08-06T07:21:41;1.10;;;0.40;;
5785;SDS011;2919;48.630;9.000;2023-08-06T07:24:07;1.40;;;0.60;;
5785;SDS011;2919;48.630;9.000;2023-08-06T07:26:32;1.20;;;0.50;;
5785;SDS011;2919;48.630;9.000;2023-08-06T07:28:58;1.60;;;0.50;;
5785;SDS011;2919;48.630;9.000;2023-08-06T07:31:24;1.10;;;0.50;;
5785;SDS011;2919;48.630;9.000;2023-08-06T07:33:50;1.97;;;0.70;;
5785;SDS011;2919;48.630;9.000;2023-08-06T07:36:16;1.20;;;0.50;;
5785;SDS011;2919;48.630;9.000;2023-08-06T07:38:41;1.30;;;0.50;;
5785;SDS011;2919;48.630;9.000;2023-08-06T07:41:07;1.20;;;0.50;;
5785;SDS011;2919;48.630;9.000;2023-08-06T07:43:33;1.10;;;0.40;;
5785;SDS011;2919;48.630;9.000;2023-08-06T07:46:00;1.10;;;0.40;;
5785;SDS011;2919;48.630;9.000;2023-08-06T07:48:27;1.20;;;0.50;;
5785;SDS011;2919;48.630;9.000;2023-08-06T07:50:53;2.00;;;0.50;;
5785;SDS011;2919;48.630;9.000;2023-08-06T07:53:22;1.10;;;0.50;;
5785;SDS011;2919;48.630;9.000;2023-08-06T07:55:51;1.43;;;0.53;;
5785;SDS011;2919;48.630;9.000;2023-08-06T07:58:19;1.27;;;0.50;;
5785;SDS011;2919;48.630;9.000;2023-08-06T08:00:45;1.10;;;0.40;;
5785;SDS011;2919;48.630;9.000;2023-08-06T08:03:15;1.10;;;0.40;;
5785;SDS011;2919;48.630;9.000;2023-08-06T08:05:41;1.20;;;0.50;;
5785;SDS011;2919;48.630;9.000;2023-08-06T08:08:08;1.10;;;0.40;;
5785;SDS011;2919;48.630;9.000;2023-08-06T08:10:33;2.37;;;0.60;;
5785;SDS011;2919;48.630;9.000;2023-08-06T08:13:00;1.20;;;0.50;;
5785;SDS011;2919;48.630;9.000;2023-08-06T08:15:27;1.40;;;0.60;;
5785;SDS011;2919;48.630;9.000;2023-08-06T08:17:53;1.10;;;0.40;;
5785;SDS011;2919;48.630;9.000;2023-08-06T08:20:19;1.87;;;0.50;;
5785;SDS011;2919;48.630;9.000;2023-08-06T08:22:45;1.30;;;0.50;;
5785;SDS011;2919;48.630;9.000;2023-08-06T08:25:11;1.10;;;0.40;;
5785;SDS011;2919;48.630;9.000;2023-08-06T08:27:36;1.10;;;0.40;;
5785;SDS011;2919;48.630;9.000;2023-08-06T08:30:02;1.10;;;0.40;;
5785;SDS011;2919;48.630;9.000;2023-08-06T08:32:28;1.10;;;0.40;;
5785;SDS011;2919;48.630;9.000;2023-08-06T08:34:53;1.37;;;0.50;;
5785;SDS011;2919;48.630;9.000;2023-08-06T08:37:19;1.30;;;0.60;;
5785;SDS011;2919;48.630;9.000;2023-08-06T08:39:44;1.10;;;0.40;;
5785;SDS011;2919;48.630;9.000;2023-08-06T08:42:10;2.30;;;1.00;;
5785;SDS011;2919;48.630;9.000;2023-08-06T08:44:36;1.97;;;0.60;;
5785;SDS011;2919;48.630;9.000;2023-08-06T08:47:05;1.10;;;0.40;;
5785;SDS011;2919;48.630;9.000;2023-08-06T08:49:37;1.80;;;0.60;;
5785;SDS011;2919;48.630;9.000;2023-08-06T08:52:04;1.10;;;0.40;;
5785;SDS011;2919;48.630;9.000;2023-08-06T08:54:35;1.20;;;0.50;;
5785;SDS011;2919;48.630;9.000;2023-08-06T08:57:04;1.10;;;0.40;;
5785;SDS011;2919;48.630;9.000;2023-08-06T08:59:29;1.10;;;0.50;;
5785;SDS011;2919;48.630;9.000;2023-08-06T09:01:56;1.43;;;0.60;;
5785;SDS011;2919;48.630;9.000;2023-08-06T09:04:25;1.10;;;0.40;;
5785;SDS011;2919;48.630;9.000;2023-08-06T09:06:53;1.20;;;0.40;;
5785;SDS011;2919;48.630;9.000;2023-08-06T09:09:34;1.80;;;0.60;;
5785;SDS011;2919;48.630;9.000;2023-08-06T09:12:05;1.20;;;0.50;;
5785;SDS011;2919;48.630;9.000;2023-08-06T09:14:37;1.20;;;0.50;;
5785;SDS011;2919;48.630;9.000;2023-08-06T09:17:03;1.37;;;0.57;;
5785;SDS011;2919;48.630;9.000;2023-08-06T09:19:30;1.20;;;0.40;;
5785;SDS011;2919;48.630;9.000;2023-08-06T09:21:56;1.20;;;0.40;;
5785;SDS011;2919;48.630;9.000;2023-08-06T09:24:22;1.20;;;0.50;;
5785;SDS011;2919;48.630;9.000;2023-08-06T09:26:48;1.40;;;0.50;;
5785;SDS011;2919;48.630;9.000;2023-08-06T09:29:15;1.20;;;0.40;;
5785;SDS011;2919;48.630;9.000;2023-08-06T09:31:41;6.60;;;0.60;;
5785;SDS011;2919;48.630;9.000;2023-08-06T09:34:12;1.30;;;0.53;;
5785;SDS011;2919;48.630;9.000;2023-08-06T09:36:47;1.20;;;0.50;;
5785;SDS011;2919;48.630;9.000;2023-08-06T09:39:18;1.20;;;0.40;;
5785;SDS011;2919;48.630;9.000;2023-08-06T09:41:45;1.23;;;0.47;;
5785;SDS011;2919;48.630;9.000;2023-08-06T09:44:19;1.20;;;0.40;;
5785;SDS011;2919;48.630;9.000;2023-08-06T09:46:49;1.20;;;0.40;;
5785;SDS011;2919;48.630;9.000;2023-08-06T09:49:19;2.40;;;0.50;;
5785;SDS011;2919;48.630;9.000;2023-08-06T09:51:46;1.17;;;0.40;;
5785;SDS011;2919;48.630;9.000;2023-08-06T09:54:16;1.30;;;0.40;;
5785;SDS011;2919;48.630;9.000;2023-08-06T09:56:43;1.20;;;0.40;;
5785;SDS011;2919;48.630;9.000;2023-08-06T09:59:08;1.30;;;0.50;;
5785;SDS011;2919;48.630;9.000;2023-08-06T10:01:36;1.10;;;0.50;;
5785;SDS011;2919;48.630;9.000;2023-08-06T10:04:02;1.10;;;0.40;;
5785;SDS011;2919;48.630;9.000;2023-08-06T10:06:29;1.60;;;0.50;;
5785;SDS011;2919;48.630;9.000;2023-08-06T10:08:58;1.10;;;0.40;;
5785;SDS011;2919;48.630;9.000;2023-08-06T10:11:24;1.10;;;0.40;;
5785;SDS011;2919;48.630;9.000;2023-08-06T10:13:53;1.30;;;0.47;;
5785;SDS011;2919;48.630;9.000;2023-08-06T10:16:23;1.30;;;0.50;;
5785;SDS011;2919;48.630;9.000;2023-08-06T10:18:49;1.17;;;0.40;;
5785;SDS011;2919;48.630;9.000;2023-08-06T10:21:16;2.40;;;0.50;;
5785;SDS011;2919;48.630;9.000;2023-08-06T10:23:41;1.10;;;0.40;;
5785;SDS011;2919;48.630;9.000;2023-08-06T10:26:07;1.10;;;0.50;;
5785;SDS011;2919;48.630;9.000;2023-08-06T10:28:34;1.10;;;0.40;;
5785;SDS011;2919;48.630;9.000;2023-08-06T10:31:01;1.10;;;0.50;;
5785;SDS011;2919;48.630;9.000;2023-08-06T10:33:39;2.10;;;0.60;;
5785;SDS011;2919;48.630;9.000;2023-08-06T10:36:09;1.10;;;0.40;;
5785;SDS011;2919;48.630;9.000;2023-08-06T10:38:36;1.30;;;0.60;;
5785;SDS011;2919;48.630;9.000;2023-08-06T10:41:16;2.17;;;0.67;;
5785;SDS011;2919;48.630;9.000;2023-08-06T10:43:48;1.10;;;0.40;;
5785;SDS011;2919;48.630;9.000;2023-08-06T10:46:26;1.10;;;0.40;;
5785;SDS011;2919;48.630;9.000;2023-08-06T10:48:52;1.10;;;0.40;;
5785;SDS011;2919;48.630;9.000;2023-08-06T10:51:18;1.10;;;0.50;;
5785;SDS011;2919;48.630;9.000;2023-08-06T10:53:44;1.20;;;0.50;;
5785;SDS011;2919;48.630;9.000;2023-08-06T10:56:14;1.30;;;0.50;;
5785;SDS011;2919;48.630;9.000;2023-08-06T10:58:41;1.10;;;0.40;;
5785;SDS011;2919;48.630;9.000;2023-08-06T11:01:07;1.40;;;0.60;;
5785;SDS011;2919;48.630;9.000;2023-08-06T11:03:33;1.50;;;0.53;;
5785;SDS011;2919;48.630;9.000;2023-08-06T11:05:59;1.10;;;0.50;;
5785;SDS011;2919;48.630;9.000;2023-08-06T11:08:29;2.03;;;0.60;;
5785;SDS011;2919;48.630;9.000;2023-08-06T11:11:07;1.20;;;0.60;;
5785;SDS011;2919;48.630;9.000;2023-08-06T11:13:34;1.40;;;0.40;;
5785;SDS011;2919;48.630;9.000;2023-08-06T11:15:59;1.47;;;0.57;;
5785;SDS011;2919;48.630;9.000;2023-08-06T11:18:25;1.10;;;0.50;;
5785;SDS011;2919;48.630;9.000;2023-08-06T11:20:51;1.10;;;0.40;;
5785;SDS011;2919;48.630;9.000;2023-08-06T11:23:16;1.20;;;0.50;;
5785;SDS011;2919;48.630;9.000;2023-08-06T11:25:46;1.40;;;0.50;;
5785;SDS011;2919;48.630;9.000;2023-08-06T11:28:12;1.10;;;0.40;;
5785;SDS011;2919;48.630;9.000;2023-08-06T11:30:38;1.20;;;0.50;;
5785;SDS011;2919;48.630;9.000;2023-08-06T11:33:06;1.50;;;0.60;;
5785;SDS011;2919;48.630;9.000;2023-08-06T11:35:35;1.40;;;0.60;;
5785;SDS011;2919;48.630;9.000;2023-08-06T11:38:01;1.50;;;0.50;;
5785;SDS011;2919;48.630;9.000;2023-08-06T11:40:26;1.20;;;0.50;;
5785;SDS011;2919;48.630;9.000;2023-08-06T11:42:52;1.13;;;0.40;;
5785;SDS011;2919;48.630;9.000;2023-08-06T11:45:21;1.20;;;0.50;;
5785;SDS011;2919;48.630;9.000;2023-08-06T11:47:49;1.17;;;0.50;;
5785;SDS011;2919;48.630;9.000;2023-08-06T11:50:23;1.77;;;0.60;;
5785;SDS011;2919;48.630;9.000;2023-08-06T11:52:52;1.30;;;0.40;;
5785;SDS011;2919;48.630;9.000;2023-08-06T11:55:22;1.40;;;0.60;;
5785;SDS011;2919;48.630;9.000;2023-08-06T11:57:48;1.20;;;0.50;;
5785;SDS011;2919;48.630;9.000;2023-08-06T12:00:14;1.40;;;0.60;;
5785;SDS011;2919;48.630;9.000;2023-08-06T12:02:43;1.40;;;0.50;;
5785;SDS011;2919;48.630;9.000;2023-08-06T12:05:13;2.70;;;0.73;;
5785;SDS011;2919;48.630;9.000;2023-08-06T12:07:47;1.20;;;0.50;;
5785;SDS011;2919;48.630;9.000;2023-08-06T12:10:13;1.13;;;0.40;;
5785;SDS011;2919;48.630;9.000;2023-08-06T12:12:40;1.87;;;0.70;;
5785;SDS011;2919;48.630;9.000;2023-08-06T12:15:06;1.83;;;0.60;;
5785;SDS011;2919;48.630;9.000;2023-08-06T12:17:33;1.60;;;0.60;;
5785;SDS011;2919;48.630;9.000;2023-08-06T12:19:59;1.87;;;0.60;;
5785;SDS011;2919;48.630;9.000;2023-08-06T12:22:24;1.63;;;0.73;;
5785;SDS011;2919;48.630;9.000;2023-08-06T12:24:50;1.30;;;0.50;;
5785;SDS011;2919;48.630;9.000;2023-08-06T12:27:16;2.43;;;0.90;;
5785;SDS011;2919;48.630;9.000;2023-08-06T12:29:46;1.47;;;0.67;;
5785;SDS011;2919;48.630;9.000;2023-08-06T12:32:13;3.53;;;0.60;;
5785;SDS011;2919;48.630;9.000;2023-08-06T12:34:39;2.07;;;0.60;;
5785;SDS011;2919;48.630;9.000;2023-08-06T12:37:06;2.53;;;0.90;;
5785;SDS011;2919;48.630;9.000;2023-08-06T12:39:35;1.87;;;0.80;;
5785;SDS011;2919;48.630;9.000;2023-08-06T12:42:02;1.33;;;0.57;;
5785;SDS011;2919;48.630;9.000;2023-08-06T12:44:28;1.50;;;0.67;;
5785;SDS011;2919;48.630;9.000;2023-08-06T12:46:54;2.40;;;1.07;;
5785;SDS011;2919;48.630;9.000;2023-08-06T12:49:20;1.50;;;0.60;;
5785;SDS011;2919;48.630;9.000;2023-08-06T12:51:47;2.07;;;0.80;;
5785;SDS011;2919;48.630;9.000;2023-08-06T12:54:13;1.47;;;0.70;;
5785;SDS011;2919;48.630;9.000;2023-08-06T12:56:39;1.80;;;0.90;;
5785;SDS011;2919;48.630;9.000;2023-08-06T12:59:04;1.50;;;0.67;;
5785;SDS011;2919;48.630;9.000;2023-08-06T13:01:30;1.40;;;0.67;;
5785;SDS011;2919;48.630;9.000;2023-08-06T13:03:55;1.50;;;0.60;;
5785;SDS011;2919;48.630;9.000;2023-08-06T13:06:21;1.83;;;0.50;;
5785;SDS011;2919;48.630;9.000;2023-08-06T13:08:46;1.40;;;0.60;;
5785;SDS011;2919;48.630;9.000;2023-08-06T13:11:12;1.80;;;0.70;;
5785;SDS011;2919;48.630;9.000;2023-08-06T13:13:38;1.30;;;0.50;;
5785;SDS011;2919;48.630;9.000;2023-08-06T13:16:03;2.23;;;0.70;;
5785;SDS011;2919;48.630;9.000;2023-08-06T13:18:29;1.40;;;0.50;;
5785;SDS011;2919;48.630;9.000;2023-08-06T13:20:56;1.50;;;0.63;;
5785;SDS011;2919;48.630;9.000;2023-08-06T13:23:21;1.20;;;0.50;;
5785;SDS011;2919;48.630;9.000;2023-08-06T13:25:47;1.30;;;0.60;;
5785;SDS011;2919;48.630;9.000;2023-08-06T13:28:12;1.40;;;0.57;;
5785;SDS011;2919;48.630;9.000;2023-08-06T13:30:41;1.63;;;0.63;;
5785;SDS011;2919;48.630;9.000;2023-08-06T13:33:10;1.60;;;0.60;;
5785;SDS011;2919;48.630;9.000;2023-08-06T13:35:36;2.13;;;0.50;;
5785;SDS011;2919;48.630;9.000;2023-08-06T13:38:02;1.53;;;0.60;;
5785;SDS011;2919;48.630;9.000;2023-08-06T13:40:28;1.23;;;0.60;;
5785;SDS011;2919;48.630;9.000;2023-08-06T13:42:54;1.50;;;0.57;;
5785;SDS011;2919;48.630;9.000;2023-08-06T13:45:20;1.20;;;0.40;;
5785;SDS011;2919;48.630;9.000;2023-08-06T13:47:47;1.70;;;0.70;;
5785;SDS011;2919;48.630;9.000;2023-08-06T13:50:12;1.53;;;0.77;;
5785;SDS011;2919;48.630;9.000;2023-08-06T13:52:38;2.20;;;0.77;;
5785;SDS011;2919;48.630;9.000;2023-08-06T13:55:04;1.30;;;0.50;;
5785;SDS011;2919;48.630;9.000;2023-08-06T13:57:30;1.47;;;0.63;;
5785;SDS011;2919;48.630;9.000;2023-08-06T13:59:56;1.97;;;0.60;;
5785;SDS011;2919;48.630;9.000;2023-08-06T14:02:22;3.67;;;0.87;;
5785;SDS011;2919;48.630;9.000;2023-08-06T14:04:48;1.47;;;0.50;;
5785;SDS011;2919;48.630;9.000;2023-08-06T14:07:13;1.87;;;0.70;;
5785;SDS011;2919;48.630;9.000;2023-08-06T14:09:39;1.53;;;0.50;;
5785;SDS011;2919;48.630;9.000;2023-08-06T14:12:05;1.40;;;0.50;;
5785;SDS011;2919;48.630;9.000;2023-08-06T14:14:31;1.57;;;0.57;;
5785;SDS011;2919;48.630;9.000;2023-08-06T14:16:57;1.20;;;0.40;;
5785;SDS011;2919;48.630;9.000;2023-08-06T14:19:22;1.23;;;0.50;;
5785;SDS011;2919;48.630;9.000;2023-08-06T14:21:48;1.47;;;0.60;;
5785;SDS011;2919;48.630;9.000;2023-08-06T14:24:14;1.27;;;0.57;;
5785;SDS011;2919;48.630;9.000;2023-08-06T14:26:40;1.60;;;0.60;;
5785;SDS011;2919;48.630;9.000;2023-08-06T14:29:06;1.30;;;0.53;;
5785;SDS011;2919;48.630;9.000;2023-08-06T14:31:31;1.40;;;0.60;;
5785;SDS011;2919;48.630;9.000;2023-08-06T14:33:57;1.30;;;0.60;;
5785;SDS011;2919;48.630;9.000;2023-08-06T14:36:23;1.40;;;0.50;;
5785;SDS011;2919;48.630;9.000;2023-08-06T14:38:48;1.20;;;0.50;;
5785;SDS011;2919;48.630;9.000;2023-08-06T14:41:14;1.63;;;0.50;;
5785;SDS011;2919;48.630;9.000;2023-08-06T14:43:39;1.37;;;0.53;;
5785;SDS011;2919;48.630;9.000;2023-08-06T14:46:05;1.20;;;0.50;;
5785;SDS011;2919;48.630;9.000;2023-08-06T14:48:30;1.43;;;0.50;;
5785;SDS011;2919;48.630;9.000;2023-08-06T14:50:56;1.30;;;0.57;;
5785;SDS011;2919;48.630;9.000;2023-08-06T14:53:22;2.60;;;0.87;;
5785;SDS011;2919;48.630;9.000;2023-08-06T14:55:48;1.60;;;0.70;;
5785;SDS011;2919;48.630;9.000;2023-08-06T14:58:13;1.47;;;0.60;;
5785;SDS011;2919;48.630;9.000;2023-08-06T15:00:39;1.33;;;0.50;;
5785;SDS011;2919;48.630;9.000;2023-08-06T15:03:05;2.30;;;0.67;;
5785;SDS011;2919;48.630;9.000;2023-08-06T15:05:30;1.40;;;0.50;;
5785;SDS011;2919;48.630;9.000;2023-08-06T15:07:56;4.40;;;0.80;;
5785;SDS011;2919;48.630;9.000;2023-08-06T15:10:22;1.20;;;0.50;;
5785;SDS011;2919;48.630;9.000;2023-08-06T15:12:47;1.30;;;0.50;;
5785;SDS011;2919;48.630;9.000;2023-08-06T15:15:13;1.20;;;0.60;;
5785;SDS011;2919;48.630;9.000;2023-08-06T15:17:39;1.60;;;0.60;;
5785;SDS011;2919;48.630;9.000;2023-08-06T15:20:05;1.30;;;0.50;;